sensor_id;sensor_type;location;lat;lon;timestamp;temperature;humidity
5560;DHT22;2803;47.916;8.074;2024-03-23T00:55:30;12.70;99.90
5560;DHT22;2803;47.916;8.074;2024-03-23T00:57:56;12.80;99.90
5560;DHT22;2803;47.916;8.074;2024-03-23T01:00:22;13.00;99.90
5560;DHT22;2803;47.916;8.074;2024-03-23T01:02:49;13.10;99.90
5560;DHT22;2803;47.916;8.074;2024-03-23T01:05:14;13.20;99.90
5560;DHT22;2803;47.916;8.074;2024-03-23T01:07:41;13.40;99.90
5560;DHT22;2803;47.916;8.074;2024-03-23T01:10:08;13.50;99.90
5560;DHT22;2803;47.916;8.074;2024-03-23T01:12:35;13.50;99.90
5560;DHT22;2803;47.916;8.074;2024-03-23T01:15:00;13.70;99.90
5560;DHT22;2803;47.916;8.074;2024-03-23T01:17:27;13.80;99.90
5560;DHT22;2803;47.916;8.074;2024-03-23T01:19:53;13.90;99.90
5560;DHT22;2803;47.916;8.074;2024-03-23T01:22:20;13.90;99.90
5560;DHT22;2803;47.916;8.074;2024-03-23T01:24:45;13.40;99.90
5560;DHT22;2803;47.916;8.074;2024-03-23T01:27:13;13.90;99.90
5560;DHT22;2803;47.916;8.074;2024-03-23T01:29:39;14.10;99.90
5560;DHT22;2803;47.916;8.074;2024-03-23T01:32:06;14.00;99.90
5560;DHT22;2803;47.916;8.074;2024-03-23T01:34:32;13.50;99.90
5560;DHT22;2803;47.916;8.074;2024-03-23T01:36:59;13.10;99.90
5560;DHT22;2803;47.916;8.074;2024-03-23T01:39:24;13.40;99.90
5560;DHT22;2803;47.916;8.074;2024-03-23T01:41:51;12.80;99.90
5560;DHT22;2803;47.916;8.074;2024-03-23T01:44:18;13.50;99.90
5560;DHT22;2803;47.916;8.074;2024-03-23T01:46:45;14.10;99.90
5560;DHT22;2803;47.916;8.074;2024-03-23T01:49:10;14.30;99.90
5560;DHT22;2803;47.916;8.074;2024-03-23T01:51:38;14.40;99.90
5560;DHT22;2803;47.916;8.074;2024-03-23T01:54:04;14.80;99.90
5560;DHT22;2803;47.916;8.074;2024-03-23T01:56:31;15.00;99.90
5560;DHT22;2803;47.916;8.074;2024-03-23T01:58:58;15.10;99.90
5560;DHT22;2803;47.916;8.074;2024-03-23T02:01:27;15.00;99.90
5560;DHT22;2803;47.916;8.074;2024-03-23T02:03:53;15.00;99.90
5560;DHT22;2803;47.916;8.074;2024-03-23T02:06:19;14.70;99.90
5560;DHT22;2803;47.916;8.074;2024-03-23T02:08:45;14.60;99.90
5560;DHT22;2803;47.916;8.074;2024-03-23T02:11:11;14.60;99.90
5560;DHT22;2803;47.916;8.074;2024-03-23T02:13:37;14.50;99.90
5560;DHT22;2803;47.916;8.074;2024-03-23T02:16:05;14.70;99.90
5560;DHT22;2803;47.916;8.074;2024-03-23T02:18:32;14.90;99.90
5560;DHT22;2803;47.916;8.074;2024-03-23T02:20:59;14.80;99.90
5560;DHT22;2803;47.916;8.074;2024-03-23T02:23:26;14.30;99.90
5560;DHT22;2803;47.916;8.074;2024-03-23T02:25:52;14.30;99.90
5560;DHT22;2803;47.916;8.074;2024-03-23T02:28:18;14.50;99.90
5560;DHT22;2803;47.916;8.074;2024-03-23T02:30:45;14.60;99.90
5560;DHT22;2803;47.916;8.074;2024-03-23T02:33:11;14.60;99.90
5560;DHT22;2803;47.916;8.074;2024-03-23T02:35:37;14.90;99.90
5560;DHT22;2803;47.916;8.074;2024-03-23T02:38:04;14.70;99.90
5560;DHT22;2803;47.916;8.074;2024-03-23T02:40:32;14.80;99.90
5560;DHT22;2803;47.916;8.074;2024-03-23T02:42:58;14.50;99.90
5560;DHT22;2803;47.916;8.074;2024-03-23T02:45:24;14.70;99.90
5560;DHT22;2803;47.916;8.074;2024-03-23T02:47:50;14.90;99.90
5560;DHT22;2803;47.916;8.074;2024-03-23T02:50:18;14.80;99.90
5560;DHT22;2803;47.916;8.074;2024-03-23T02:52:43;14.70;99.90
5560;DHT22;2803;47.916;8.074;2024-03-23T02:55:10;14.80;99.90
5560;DHT22;2803;47.916;8.074;2024-03-23T02:57:37;15.00;99.90
5560;DHT22;2803;47.916;8.074;2024-03-23T03:00:05;14.80;99.90
5560;DHT22;2803;47.916;8.074;2024-03-23T03:02:32;14.70;99.90
5560;DHT22;2803;47.916;8.074;2024-03-23T03:04:58;14.60;99.90
5560;DHT22;2803;47.916;8.074;2024-03-23T03:07:24;14.90;99.90
5560;DHT22;2803;47.916;8.074;2024-03-23T03:09:50;15.10;99.90
5560;DHT22;2803;47.916;8.074;2024-03-23T03:12:16;15.10;99.90
5560;DHT22;2803;47.916;8.074;2024-03-23T03:14:44;14.70;99.90
5560;DHT22;2803;47.916;8.074;2024-03-23T03:17:09;14.60;99.90
5560;DHT22;2803;47.916;8.074;2024-03-23T03:19:36;14.80;99.90
5560;DHT22;2803;47.916;8.074;2024-03-23T03:22:02;15.20;99.90
5560;DHT22;2803;47.916;8.074;2024-03-23T03:24:29;15.30;99.90
5560;DHT22;2803;47.916;8.074;2024-03-23T03:26:55;15.40;99.90
5560;DHT22;2803;47.916;8.074;2024-03-23T03:29:23;15.30;99.90
5560;DHT22;2803;47.916;8.074;2024-03-23T03:31:49;15.10;99.90
5560;DHT22;2803;47.916;8.074;2024-03-23T03:34:16;15.50;99.90
5560;DHT22;2803;47.916;8.074;2024-03-23T03:36:42;15.40;99.90
5560;DHT22;2803;47.916;8.074;2024-03-23T03:39:08;15.30;99.90
5560;DHT22;2803;47.916;8.074;2024-03-23T03:41:34;15.20;99.90
5560;DHT22;2803;47.916;8.074;2024-03-23T03:44:01;15.00;99.90
5560;DHT22;2803;47.916;8.074;2024-03-23T03:46:27;15.50;99.90
5560;DHT22;2803;47.916;8.074;2024-03-23T03:48:55;15.60;99.90
5560;DHT22;2803;47.916;8.074;2024-03-23T03:51:21;15.60;99.90
5560;DHT22;2803;47.916;8.074;2024-03-23T03:53:48;15.80;99.90
5560;DHT22;2803;47.916;8.074;2024-03-23T03:56:13;16.00;99.90
5560;DHT22;2803;47.916;8.074;2024-03-23T03:58:40;15.90;99.90
5560;DHT22;2803;47.916;8.074;2024-03-23T04:01:05;15.70;99.90
5560;DHT22;2803;47.916;8.074;2024-03-23T04:03:32;15.40;99.90
5560;DHT22;2803;47.916;8.074;2024-03-23T04:05:59;15.00;99.90
5560;DHT22;2803;47.916;8.074;2024-03-23T04:08:26;15.10;99.90
5560;DHT22;2803;47.916;8.074;2024-03-23T04:10:51;14.60;99.90
5560;DHT22;2803;47.916;8.074;2024-03-23T04:13:18;14.90;99.90
5560;DHT22;2803;47.916;8.074;2024-03-23T04:15:44;14.80;99.90
5560;DHT22;2803;47.916;8.074;2024-03-23T04:18:10;14.90;99.90
5560;DHT22;2803;47.916;8.074;2024-03-23T04:20:36;15.20;99.90
5560;DHT22;2803;47.916;8.074;2024-03-23T04:23:04;15.60;99.90
5560;DHT22;2803;47.916;8.074;2024-03-23T04:25:30;14.90;99.90
5560;DHT22;2803;47.916;8.074;2024-03-23T04:27:57;15.00;99.90
5560;DHT22;2803;47.916;8.074;2024-03-23T04:30:22;15.10;99.90
5560;DHT22;2803;47.916;8.074;2024-03-23T04:32:50;14.90;99.90
5560;DHT22;2803;47.916;8.074;2024-03-23T04:35:16;14.70;99.90
5560;DHT22;2803;47.916;8.074;2024-03-23T04:37:42;14.70;99.90
5560;DHT22;2803;47.916;8.074;2024-03-23T04:40:10;14.30;99.90
5560;DHT22;2803;47.916;8.074;2024-03-23T04:42:37;14.40;99.90
5560;DHT22;2803;47.916;8.074;2024-03-23T04:45:04;14.10;99.90
5560;DHT22;2803;47.916;8.074;2024-03-23T04:47:32;14.10;99.90
5560;DHT22;2803;47.916;8.074;2024-03-23T04:50:01;14.10;99.90
5560;DHT22;2803;47.916;8.074;2024-03-23T04:52:28;14.60;99.90
5560;DHT22;2803;47.916;8.074;2024-03-23T04:54:54;14.40;99.90
5560;DHT22;2803;47.916;8.074;2024-03-23T04:57:22;13.70;99.90
5560;DHT22;2803;47.916;8.074;2024-03-23T04:59:49;13.30;99.90
5560;DHT22;2803;47.916;8.074;2024-03-23T05:02:15;13.40;99.90
5560;DHT22;2803;47.916;8.074;2024-03-23T05:04:41;13.00;99.90
5560;DHT22;2803;47.916;8.074;2024-03-23T05:07:07;12.80;99.90
5560;DHT22;2803;47.916;8.074;2024-03-23T05:09:34;13.10;99.90
5560;DHT22;2803;47.916;8.074;2024-03-23T05:12:00;13.00;99.90
5560;DHT22;2803;47.916;8.074;2024-03-23T05:14:28;12.90;99.90
5560;DHT22;2803;47.916;8.074;2024-03-23T05:16:54;12.30;99.90
5560;DHT22;2803;47.916;8.074;2024-03-23T05:19:21;12.30;99.90
5560;DHT22;2803;47.916;8.074;2024-03-23T05:21:47;12.00;99.90
5560;DHT22;2803;47.916;8.074;2024-03-23T05:24:13;11.90;99.90
5560;DHT22;2803;47.916;8.074;2024-03-23T05:26:40;12.00;99.90
5560;DHT22;2803;47.916;8.074;2024-03-23T05:29:05;12.00;99.90
5560;DHT22;2803;47.916;8.074;2024-03-23T05:31:37;12.30;99.90
5560;DHT22;2803;47.916;8.074;2024-03-23T05:34:03;12.50;99.90
5560;DHT22;2803;47.916;8.074;2024-03-23T05:36:30;12.50;99.90
5560;DHT22;2803;47.916;8.074;2024-03-23T05:38:56;12.80;99.90
5560;DHT22;2803;47.916;8.074;2024-03-23T05:41:22;12.50;99.90
5560;DHT22;2803;47.916;8.074;2024-03-23T05:43:49;11.80;99.90
5560;DHT22;2803;47.916;8.074;2024-03-23T05:46:16;11.60;99.90
5560;DHT22;2803;47.916;8.074;2024-03-23T05:48:44;11.70;99.90
5560;DHT22;2803;47.916;8.074;2024-03-23T05:51:11;12.00;99.90
5560;DHT22;2803;47.916;8.074;2024-03-23T05:53:38;12.10;99.90
5560;DHT22;2803;47.916;8.074;2024-03-23T05:56:05;12.30;99.90
5560;DHT22;2803;47.916;8.074;2024-03-23T05:58:31;12.40;99.90
5560;DHT22;2803;47.916;8.074;2024-03-23T06:00:58;12.40;99.90
5560;DHT22;2803;47.916;8.074;2024-03-23T06:03:24;11.90;99.90
5560;DHT22;2803;47.916;8.074;2024-03-23T06:05:52;11.50;99.90
5560;DHT22;2803;47.916;8.074;2024-03-23T06:08:18;11.50;99.90
5560;DHT22;2803;47.916;8.074;2024-03-23T06:10:45;11.30;99.90
5560;DHT22;2803;47.916;8.074;2024-03-23T06:13:11;11.00;99.90
5560;DHT22;2803;47.916;8.074;2024-03-23T06:15:38;11.10;99.90
5560;DHT22;2803;47.916;8.074;2024-03-23T06:18:04;11.10;99.90
5560;DHT22;2803;47.916;8.074;2024-03-23T06:20:32;10.90;99.90
5560;DHT22;2803;47.916;8.074;2024-03-23T06:22:59;11.00;99.90
5560;DHT22;2803;47.916;8.074;2024-03-23T06:25:25;11.10;99.90
5560;DHT22;2803;47.916;8.074;2024-03-23T06:27:51;10.80;99.90
5560;DHT22;2803;47.916;8.074;2024-03-23T06:30:18;10.70;99.90
5560;DHT22;2803;47.916;8.074;2024-03-23T06:32:43;11.00;99.90
5560;DHT22;2803;47.916;8.074;2024-03-23T06:35:10;10.90;99.90
5560;DHT22;2803;47.916;8.074;2024-03-23T06:37:36;10.10;99.90
5560;DHT22;2803;47.916;8.074;2024-03-23T06:40:06;9.00;99.90
5560;DHT22;2803;47.916;8.074;2024-03-23T06:42:35;8.80;99.90
5560;DHT22;2803;47.916;8.074;2024-03-23T06:45:01;8.60;99.90
5560;DHT22;2803;47.916;8.074;2024-03-23T06:47:27;8.50;99.90
5560;DHT22;2803;47.916;8.074;2024-03-23T06:49:53;8.40;99.90
5560;DHT22;2803;47.916;8.074;2024-03-23T06:52:19;8.10;99.90
5560;DHT22;2803;47.916;8.074;2024-03-23T06:54:46;8.00;99.90
5560;DHT22;2803;47.916;8.074;2024-03-23T06:57:13;8.10;99.90
5560;DHT22;2803;47.916;8.074;2024-03-23T06:59:39;7.90;99.90
5560;DHT22;2803;47.916;8.074;2024-03-23T07:02:05;8.10;99.90
5560;DHT22;2803;47.916;8.074;2024-03-23T07:04:33;8.30;99.90
5560;DHT22;2803;47.916;8.074;2024-03-23T07:06:59;8.10;99.90
5560;DHT22;2803;47.916;8.074;2024-03-23T07:09:27;8.20;99.90
5560;DHT22;2803;47.916;8.074;2024-03-23T07:11:53;8.10;99.90
5560;DHT22;2803;47.916;8.074;2024-03-23T07:14:22;7.90;99.90
5560;DHT22;2803;47.916;8.074;2024-03-23T07:16:47;8.10;99.90
5560;DHT22;2803;47.916;8.074;2024-03-23T07:19:15;8.00;99.90
5560;DHT22;2803;47.916;8.074;2024-03-23T07:21:41;7.80;99.90
5560;DHT22;2803;47.916;8.074;2024-03-23T07:24:08;7.40;99.90
5560;DHT22;2803;47.916;8.074;2024-03-23T07:26:34;7.50;99.90
5560;DHT22;2803;47.916;8.074;2024-03-23T07:29:00;7.60;99.90
5560;DHT22;2803;47.916;8.074;2024-03-23T07:31:27;7.50;99.90
5560;DHT22;2803;47.916;8.074;2024-03-23T07:33:54;7.40;99.90
5560;DHT22;2803;47.916;8.074;2024-03-23T07:36:19;7.30;99.90
5560;DHT22;2803;47.916;8.074;2024-03-23T07:38:46;7.20;99.90
5560;DHT22;2803;47.916;8.074;2024-03-23T07:41:14;7.20;99.90
5560;DHT22;2803;47.916;8.074;2024-03-23T07:43:42;7.40;99.90
5560;DHT22;2803;47.916;8.074;2024-03-23T07:46:08;7.40;99.90
5560;DHT22;2803;47.916;8.074;2024-03-23T07:48:36;7.40;99.90
5560;DHT22;2803;47.916;8.074;2024-03-23T07:51:03;7.30;99.90
5560;DHT22;2803;47.916;8.074;2024-03-23T07:53:31;7.30;99.90
5560;DHT22;2803;47.916;8.074;2024-03-23T07:55:58;7.10;99.90
5560;DHT22;2803;47.916;8.074;2024-03-23T07:58:25;7.00;99.90
5560;DHT22;2803;47.916;8.074;2024-03-23T08:00:52;7.30;99.90
5560;DHT22;2803;47.916;8.074;2024-03-23T08:03:19;7.30;99.90
5560;DHT22;2803;47.916;8.074;2024-03-23T08:05:46;7.00;99.90
5560;DHT22;2803;47.916;8.074;2024-03-23T08:08:14;6.90;99.90
5560;DHT22;2803;47.916;8.074;2024-03-23T08:10:48;6.90;99.90
5560;DHT22;2803;47.916;8.074;2024-03-23T08:13:14;7.40;99.90
5560;DHT22;2803;47.916;8.074;2024-03-23T08:15:40;7.30;99.90
5560;DHT22;2803;47.916;8.074;2024-03-23T08:18:07;7.20;99.90
5560;DHT22;2803;47.916;8.074;2024-03-23T08:20:32;7.00;99.90
5560;DHT22;2803;47.916;8.074;2024-03-23T08:23:00;7.00;99.90
5560;DHT22;2803;47.916;8.074;2024-03-23T08:25:26;7.10;99.90
5560;DHT22;2803;47.916;8.074;2024-03-23T08:27:52;7.10;99.90
5560;DHT22;2803;47.916;8.074;2024-03-23T08:30:18;7.00;99.90
5560;DHT22;2803;47.916;8.074;2024-03-23T08:32:45;7.00;99.90
5560;DHT22;2803;47.916;8.074;2024-03-23T08:35:11;7.10;99.90
5560;DHT22;2803;47.916;8.074;2024-03-23T08:37:38;7.10;99.90
5560;DHT22;2803;47.916;8.074;2024-03-23T08:40:05;7.20;99.90
5560;DHT22;2803;47.916;8.074;2024-03-23T08:42:33;7.10;99.90
5560;DHT22;2803;47.916;8.074;2024-03-23T08:44:59;7.40;99.90
5560;DHT22;2803;47.916;8.074;2024-03-23T08:47:26;7.40;99.90
5560;DHT22;2803;47.916;8.074;2024-03-23T08:49:52;7.60;99.90
5560;DHT22;2803;47.916;8.074;2024-03-23T08:52:18;7.80;99.90
5560;DHT22;2803;47.916;8.074;2024-03-23T08:54:44;7.80;99.90
5560;DHT22;2803;47.916;8.074;2024-03-23T08:57:12;7.70;99.90
5560;DHT22;2803;47.916;8.074;2024-03-23T08:59:38;8.10;99.90
5560;DHT22;2803;47.916;8.074;2024-03-23T09:02:05;8.10;99.90
5560;DHT22;2803;47.916;8.074;2024-03-23T09:04:30;8.30;99.90
5560;DHT22;2803;47.916;8.074;2024-03-23T09:06:57;8.40;99.90
5560;DHT22;2803;47.916;8.074;2024-03-23T09:09:25;8.40;99.90
5560;DHT22;2803;47.916;8.074;2024-03-23T09:11:52;8.30;99.90
5560;DHT22;2803;47.916;8.074;2024-03-23T09:14:19;8.20;99.90
5560;DHT22;2803;47.916;8.074;2024-03-23T09:16:45;8.30;99.90
5560;DHT22;2803;47.916;8.074;2024-03-23T09:19:11;8.20;99.90
5560;DHT22;2803;47.916;8.074;2024-03-23T09:21:37;8.60;99.90
5560;DHT22;2803;47.916;8.074;2024-03-23T09:24:03;8.30;99.90
5560;DHT22;2803;47.916;8.074;2024-03-23T09:26:30;8.30;99.90
5560;DHT22;2803;47.916;8.074;2024-03-23T09:28:55;7.90;99.90
5560;DHT22;2803;47.916;8.074;2024-03-23T09:31:23;7.90;99.90
5560;DHT22;2803;47.916;8.074;2024-03-23T09:33:49;8.20;99.90
5560;DHT22;2803;47.916;8.074;2024-03-23T09:36:15;8.60;99.90
5560;DHT22;2803;47.916;8.074;2024-03-23T09:38:41;8.50;99.90
5560;DHT22;2803;47.916;8.074;2024-03-23T09:41:08;8.80;99.90
5560;DHT22;2803;47.916;8.074;2024-03-23T09:43:34;9.20;99.90
5560;DHT22;2803;47.916;8.074;2024-03-23T09:46:02;9.30;99.90
5560;DHT22;2803;47.916;8.074;2024-03-23T09:48:29;9.40;99.90
5560;DHT22;2803;47.916;8.074;2024-03-23T09:50:56;8.80;99.90
5560;DHT22;2803;47.916;8.074;2024-03-23T09:53:22;8.60;99.90
5560;DHT22;2803;47.916;8.074;2024-03-23T09:55:48;8.90;99.90
5560;DHT22;2803;47.916;8.074;2024-03-23T09:58:16;9.50;99.90
5560;DHT22;2803;47.916;8.074;2024-03-23T10:00:43;10.10;99.90
5560;DHT22;2803;47.916;8.074;2024-03-23T10:03:09;10.50;99.90
5560;DHT22;2803;47.916;8.074;2024-03-23T10:05:38;10.90;99.90
5560;DHT22;2803;47.916;8.074;2024-03-23T10:08:17;11.40;99.90
5560;DHT22;2803;47.916;8.074;2024-03-23T10:10:45;11.50;99.90
5560;DHT22;2803;47.916;8.074;2024-03-23T10:13:23;11.30;99.90
5560;DHT22;2803;47.916;8.074;2024-03-23T10:15:55;11.20;99.90
5560;DHT22;2803;47.916;8.074;2024-03-23T10:18:22;11.30;99.90
5560;DHT22;2803;47.916;8.074;2024-03-23T10:21:06;11.30;99.90
5560;DHT22;2803;47.916;8.074;2024-03-23T10:23:33;11.50;99.90
5560;DHT22;2803;47.916;8.074;2024-03-23T10:26:13;11.50;99.90
5560;DHT22;2803;47.916;8.074;2024-03-23T10:28:51;11.30;99.90
5560;DHT22;2803;47.916;8.074;2024-03-23T10:31:18;11.30;99.90
5560;DHT22;2803;47.916;8.074;2024-03-23T10:33:45;11.20;99.90
5560;DHT22;2803;47.916;8.074;2024-03-23T10:36:13;11.00;99.90
5560;DHT22;2803;47.916;8.074;2024-03-23T10:38:40;11.00;99.90
5560;DHT22;2803;47.916;8.074;2024-03-23T10:41:09;11.20;99.90
5560;DHT22;2803;47.916;8.074;2024-03-23T10:43:36;10.90;99.90
5560;DHT22;2803;47.916;8.074;2024-03-23T10:46:03;10.10;99.90
5560;DHT22;2803;47.916;8.074;2024-03-23T10:48:28;10.00;99.90
5560;DHT22;2803;47.916;8.074;2024-03-23T10:50:55;9.40;99.90
5560;DHT22;2803;47.916;8.074;2024-03-23T10:53:25;9.10;99.90
5560;DHT22;2803;47.916;8.074;2024-03-23T10:55:54;9.00;99.90
5560;DHT22;2803;47.916;8.074;2024-03-23T10:58:23;8.90;99.90
5560;DHT22;2803;47.916;8.074;2024-03-23T11:00:51;9.30;99.90
5560;DHT22;2803;47.916;8.074;2024-03-23T11:03:34;9.70;99.90
5560;DHT22;2803;47.916;8.074;2024-03-23T11:06:02;8.80;99.90
5560;DHT22;2803;47.916;8.074;2024-03-23T11:08:34;7.80;99.90
5560;DHT22;2803;47.916;8.074;2024-03-23T11:11:17;7.30;99.90
5560;DHT22;2803;47.916;8.074;2024-03-23T11:13:44;6.80;99.90
5560;DHT22;2803;47.916;8.074;2024-03-23T11:16:13;6.40;99.90
5560;DHT22;2803;47.916;8.074;2024-03-23T11:18:39;6.30;99.90
5560;DHT22;2803;47.916;8.074;2024-03-23T11:21:07;6.20;99.90
5560;DHT22;2803;47.916;8.074;2024-03-23T11:23:34;6.20;99.90
5560;DHT22;2803;47.916;8.074;2024-03-23T11:26:01;6.20;99.90
5560;DHT22;2803;47.916;8.074;2024-03-23T11:28:26;6.10;99.90
5560;DHT22;2803;47.916;8.074;2024-03-23T11:30:53;6.30;99.90
5560;DHT22;2803;47.916;8.074;2024-03-23T11:33:19;6.50;99.90
5560;DHT22;2803;47.916;8.074;2024-03-23T11:35:45;6.20;99.90
5560;DHT22;2803;47.916;8.074;2024-03-23T11:38:12;6.60;99.90
5560;DHT22;2803;47.916;8.074;2024-03-23T11:40:41;6.70;99.90
5560;DHT22;2803;47.916;8.074;2024-03-23T11:43:08;6.70;99.90
5560;DHT22;2803;47.916;8.074;2024-03-23T11:45:37;7.40;99.90
5560;DHT22;2803;47.916;8.074;2024-03-23T11:48:05;7.10;99.90
5560;DHT22;2803;47.916;8.074;2024-03-23T11:50:33;7.30;99.90
5560;DHT22;2803;47.916;8.074;2024-03-23T11:53:14;7.30;99.90
5560;DHT22;2803;47.916;8.074;2024-03-23T11:55:45;7.70;99.90
5560;DHT22;2803;47.916;8.074;2024-03-23T11:58:11;8.00;99.90
5560;DHT22;2803;47.916;8.074;2024-03-23T12:00:38;8.00;99.90
5560;DHT22;2803;47.916;8.074;2024-03-23T12:03:05;8.30;99.90
5560;DHT22;2803;47.916;8.074;2024-03-23T12:05:32;7.80;99.90
5560;DHT22;2803;47.916;8.074;2024-03-23T12:08:14;7.70;99.90
5560;DHT22;2803;47.916;8.074;2024-03-23T12:10:44;7.50;99.90
5560;DHT22;2803;47.916;8.074;2024-03-23T12:13:09;7.40;99.90
5560;DHT22;2803;47.916;8.074;2024-03-23T12:15:36;7.90;99.90
5560;DHT22;2803;47.916;8.074;2024-03-23T12:18:09;7.80;99.90
5560;DHT22;2803;47.916;8.074;2024-03-23T12:20:37;7.90;99.90
5560;DHT22;2803;47.916;8.074;2024-03-23T12:23:07;8.40;99.90
5560;DHT22;2803;47.916;8.074;2024-03-23T12:25:35;8.40;99.90
5560;DHT22;2803;47.916;8.074;2024-03-23T12:28:03;8.80;99.90
5560;DHT22;2803;47.916;8.074;2024-03-23T12:30:32;9.10;99.90
5560;DHT22;2803;47.916;8.074;2024-03-23T12:32:57;9.20;99.90
5560;DHT22;2803;47.916;8.074;2024-03-23T12:35:24;9.70;99.90
5560;DHT22;2803;47.916;8.074;2024-03-23T12:37:50;10.00;99.90
5560;DHT22;2803;47.916;8.074;2024-03-23T12:40:16;10.20;99.90
5560;DHT22;2803;47.916;8.074;2024-03-23T12:42:42;9.90;99.90
5560;DHT22;2803;47.916;8.074;2024-03-23T12:45:10;10.10;99.90
5560;DHT22;2803;47.916;8.074;2024-03-23T12:47:35;9.50;99.90
5560;DHT22;2803;47.916;8.074;2024-03-23T12:50:02;9.50;99.90
5560;DHT22;2803;47.916;8.074;2024-03-23T12:52:28;9.80;99.90
5560;DHT22;2803;47.916;8.074;2024-03-23T12:54:55;9.70;99.90
5560;DHT22;2803;47.916;8.074;2024-03-23T12:57:22;9.10;99.90
5560;DHT22;2803;47.916;8.074;2024-03-23T12:59:49;8.60;99.90
5560;DHT22;2803;47.916;8.074;2024-03-23T13:02:18;8.90;99.90
5560;DHT22;2803;47.916;8.074;2024-03-23T13:04:46;9.30;99.90
5560;DHT22;2803;47.916;8.074;2024-03-23T13:07:12;9.80;99.90
5560;DHT22;2803;47.916;8.074;2024-03-23T13:09:39;9.90;99.90
5560;DHT22;2803;47.916;8.074;2024-03-23T13:12:05;10.40;99.90
5560;DHT22;2803;47.916;8.074;2024-03-23T13:14:32;11.00;99.90
5560;DHT22;2803;47.916;8.074;2024-03-23T13:16:57;10.70;99.90
5560;DHT22;2803;47.916;8.074;2024-03-23T13:19:25;10.40;99.90
5560;DHT22;2803;47.916;8.074;2024-03-23T13:21:53;10.00;99.90
5560;DHT22;2803;47.916;8.074;2024-03-23T13:24:22;10.30;99.90
5560;DHT22;2803;47.916;8.074;2024-03-23T13:26:48;10.20;99.90
5560;DHT22;2803;47.916;8.074;2024-03-23T13:29:14;9.40;99.90
5560;DHT22;2803;47.916;8.074;2024-03-23T13:31:40;8.90;99.90
5560;DHT22;2803;47.916;8.074;2024-03-23T13:34:06;8.70;99.90
5560;DHT22;2803;47.916;8.074;2024-03-23T13:36:33;8.70;99.90
5560;DHT22;2803;47.916;8.074;2024-03-23T13:39:01;9.00;99.90
5560;DHT22;2803;47.916;8.074;2024-03-23T13:41:28;9.70;99.90
5560;DHT22;2803;47.916;8.074;2024-03-23T13:43:54;10.10;99.90
5560;DHT22;2803;47.916;8.074;2024-03-23T13:46:20;10.40;99.90
5560;DHT22;2803;47.916;8.074;2024-03-23T13:48:46;10.80;99.90
5560;DHT22;2803;47.916;8.074;2024-03-23T13:51:12;10.90;99.90
5560;DHT22;2803;47.916;8.074;2024-03-23T13:53:40;11.00;99.90
5560;DHT22;2803;47.916;8.074;2024-03-23T13:56:06;11.10;99.90
5560;DHT22;2803;47.916;8.074;2024-03-23T13:58:33;11.40;99.90
5560;DHT22;2803;47.916;8.074;2024-03-23T14:00:58;11.20;99.90
5560;DHT22;2803;47.916;8.074;2024-03-23T14:03:25;11.70;99.90
5560;DHT22;2803;47.916;8.074;2024-03-23T14:05:50;11.00;99.90
5560;DHT22;2803;47.916;8.074;2024-03-23T14:08:18;11.30;99.90
5560;DHT22;2803;47.916;8.074;2024-03-23T14:10:48;11.70;99.90
5560;DHT22;2803;47.916;8.074;2024-03-23T14:13:14;11.90;99.90
5560;DHT22;2803;47.916;8.074;2024-03-23T14:15:40;12.10;99.90
5560;DHT22;2803;47.916;8.074;2024-03-23T14:18:07;12.90;99.90
5560;DHT22;2803;47.916;8.074;2024-03-23T14:20:33;13.30;99.90
5560;DHT22;2803;47.916;8.074;2024-03-23T14:23:00;13.20;99.90
5560;DHT22;2803;47.916;8.074;2024-03-23T14:25:26;13.30;99.90
5560;DHT22;2803;47.916;8.074;2024-03-23T14:27:56;13.70;99.90
5560;DHT22;2803;47.916;8.074;2024-03-23T14:30:21;12.60;99.90
5560;DHT22;2803;47.916;8.074;2024-03-23T14:32:48;12.20;99.90
5560;DHT22;2803;47.916;8.074;2024-03-23T14:35:14;11.70;99.90
5560;DHT22;2803;47.916;8.074;2024-03-23T14:37:40;11.90;99.90
5560;DHT22;2803;47.916;8.074;2024-03-23T14:40:07;11.70;99.90
5560;DHT22;2803;47.916;8.074;2024-03-23T14:42:34;11.50;99.90
5560;DHT22;2803;47.916;8.074;2024-03-23T14:45:01;11.00;99.90
5560;DHT22;2803;47.916;8.074;2024-03-23T14:47:28;10.80;99.90
5560;DHT22;2803;47.916;8.074;2024-03-23T14:49:53;10.30;99.90
5560;DHT22;2803;47.916;8.074;2024-03-23T14:52:20;9.60;99.90
5560;DHT22;2803;47.916;8.074;2024-03-23T14:54:46;9.10;99.90
5560;DHT22;2803;47.916;8.074;2024-03-23T14:57:12;9.20;99.90
5560;DHT22;2803;47.916;8.074;2024-03-23T14:59:38;9.00;99.90
5560;DHT22;2803;47.916;8.074;2024-03-23T15:02:07;9.10;99.90
5560;DHT22;2803;47.916;8.074;2024-03-23T15:04:33;9.30;99.90
5560;DHT22;2803;47.916;8.074;2024-03-23T15:07:00;9.40;99.90
5560;DHT22;2803;47.916;8.074;2024-03-23T15:09:26;9.00;99.90
5560;DHT22;2803;47.916;8.074;2024-03-23T15:11:52;8.70;99.90
5560;DHT22;2803;47.916;8.074;2024-03-23T15:14:20;8.40;99.90
5560;DHT22;2803;47.916;8.074;2024-03-23T15:16:46;8.10;99.90
5560;DHT22;2803;47.916;8.074;2024-03-23T15:19:15;8.50;99.90
5560;DHT22;2803;47.916;8.074;2024-03-23T15:21:42;8.70;99.90
5560;DHT22;2803;47.916;8.074;2024-03-23T15:24:09;9.00;99.90
5560;DHT22;2803;47.916;8.074;2024-03-23T15:26:36;9.40;99.90
5560;DHT22;2803;47.916;8.074;2024-03-23T15:29:02;9.60;99.90
5560;DHT22;2803;47.916;8.074;2024-03-23T15:31:36;9.90;99.90
5560;DHT22;2803;47.916;8.074;2024-03-23T15:34:02;9.50;99.90
5560;DHT22;2803;47.916;8.074;2024-03-23T15:36:31;9.20;99.90
5560;DHT22;2803;47.916;8.074;2024-03-23T15:38:57;9.20;99.90
5560;DHT22;2803;47.916;8.074;2024-03-23T15:41:23;9.40;99.90
5560;DHT22;2803;47.916;8.074;2024-03-23T15:43:49;9.50;99.90
5560;DHT22;2803;47.916;8.074;2024-03-23T15:46:16;9.60;99.90
5560;DHT22;2803;47.916;8.074;2024-03-23T15:48:44;9.00;99.90
5560;DHT22;2803;47.916;8.074;2024-03-23T15:51:13;8.60;99.90
5560;DHT22;2803;47.916;8.074;2024-03-23T15:53:40;8.50;99.90
5560;DHT22;2803;47.916;8.074;2024-03-23T15:56:07;8.60;99.90
5560;DHT22;2803;47.916;8.074;2024-03-23T15:58:33;8.50;99.90
5560;DHT22;2803;47.916;8.074;2024-03-23T16:01:02;8.40;99.90
5560;DHT22;2803;47.916;8.074;2024-03-23T16:03:28;8.30;99.90
5560;DHT22;2803;47.916;8.074;2024-03-23T16:05:57;8.50;99.90
5560;DHT22;2803;47.916;8.074;2024-03-23T16:08:23;8.10;99.90
5560;DHT22;2803;47.916;8.074;2024-03-23T16:10:51;7.80;99.90
5560;DHT22;2803;47.916;8.074;2024-03-23T16:13:18;7.90;99.90
5560;DHT22;2803;47.916;8.074;2024-03-23T16:15:45;7.80;99.90
5560;DHT22;2803;47.916;8.074;2024-03-23T16:18:11;7.90;99.90
5560;DHT22;2803;47.916;8.074;2024-03-23T16:20:38;8.20;99.90
5560;DHT22;2803;47.916;8.074;2024-03-23T16:23:04;8.30;99.90
5560;DHT22;2803;47.916;8.074;2024-03-23T16:25:30;8.00;99.90
5560;DHT22;2803;47.916;8.074;2024-03-23T16:27:57;7.90;99.90
5560;DHT22;2803;47.916;8.074;2024-03-23T16:30:24;7.80;99.90
5560;DHT22;2803;47.916;8.074;2024-03-23T16:32:49;6.40;99.90
5560;DHT22;2803;47.916;8.074;2024-03-23T16:35:16;6.20;99.90
5560;DHT22;2803;47.916;8.074;2024-03-23T16:37:42;6.00;99.90
5560;DHT22;2803;47.916;8.074;2024-03-23T16:40:09;6.10;99.90
5560;DHT22;2803;47.916;8.074;2024-03-23T16:42:36;6.20;99.90
5560;DHT22;2803;47.916;8.074;2024-03-23T16:45:05;6.30;99.90
5560;DHT22;2803;47.916;8.074;2024-03-23T16:47:33;6.20;99.90
5560;DHT22;2803;47.916;8.074;2024-03-23T16:50:00;6.40;99.90
5560;DHT22;2803;47.916;8.074;2024-03-23T16:52:26;6.40;99.90
5560;DHT22;2803;47.916;8.074;2024-03-23T16:54:52;6.70;99.90
5560;DHT22;2803;47.916;8.074;2024-03-23T16:57:18;7.00;99.90
5560;DHT22;2803;47.916;8.074;2024-03-23T16:59:44;7.40;99.90
5560;DHT22;2803;47.916;8.074;2024-03-23T17:02:11;7.90;99.90